Time;durP1;ratioP1;P1;durP2;ratioP2;P2;SDS_P1;SDS_P2;PMS_P1;PMS_P2;Temp;Humidity;BMP_temperature;BMP_pressure;BME280_temperature;BME280_humidity;BME280_pressure;Samples;Min_cycle;Max_cycle;Signal;HPM_P1;HPM_P2
2022/03/04 00:00:45;;;;;;;14.02;3.83;;;10.40;99.90;;;;;;5032552;28;20029;-68
2022/03/04 00:03:11;;;;;;;15.20;4.05;;;10.50;99.90;;;;;;5034066;28;20478;-68
2022/03/04 00:05:40;;;;;;;16.60;10.88;;;10.40;99.90;;;;;;5032838;28;20034;-68
2022/03/04 00:08:05;;;;;;;16.80;5.63;;;10.40;99.90;;;;;;5033046;28;20025;-68
2022/03/04 00:10:32;;;;;;;29.98;25.20;;;10.40;99.90;;;;;;5032810;28;20478;-67
2022/03/04 00:12:58;;;;;;;15.85;8.00;;;10.40;99.90;;;;;;5031401;28;20026;-67
2022/03/04 00:15:24;;;;;;;17.52;5.90;;;10.40;99.90;;;;;;5032472;28;24341;-68
2022/03/04 00:17:50;;;;;;;14.10;3.35;;;10.40;99.90;;;;;;5034387;28;20042;-67
2022/03/04 00:20:16;;;;;;;17.38;4.18;;;10.30;99.90;;;;;;5032977;28;20101;-67
2022/03/04 00:22:42;;;;;;;16.63;5.07;;;10.30;99.90;;;;;;5032494;28;20100;-68
2022/03/04 00:25:08;;;;;;;15.45;3.92;;;10.40;99.90;;;;;;5032399;28;20029;-67
2022/03/04 00:27:34;;;;;;;16.35;3.47;;;10.30;99.90;;;;;;5031329;28;20112;-68
2022/03/04 00:30:01;;;;;;;14.52;3.80;;;10.30;99.90;;;;;;5034080;28;20026;-67
2022/03/04 00:32:26;;;;;;;12.93;3.50;;;10.50;99.90;;;;;;5032209;28;20036;-68
2022/03/04 00:34:52;;;;;;;14.20;4.43;;;10.40;99.90;;;;;;5032221;28;20026;-68
2022/03/04 00:37:18;;;;;;;11.38;3.30;;;10.40;99.90;;;;;;5032031;28;20040;-67
2022/03/04 00:39:44;;;;;;;16.88;3.95;;;10.40;99.90;;;;;;5032156;28;20033;-68
2022/03/04 00:42:09;;;;;;;15.60;3.70;;;10.40;99.90;;;;;;5033638;28;20041;-68
2022/03/04 00:44:35;;;;;;;15.50;4.50;;;10.30;99.90;;;;;;5032599;28;20017;-68
2022/03/04 00:47:01;;;;;;;14.40;3.78;;;10.30;99.90;;;;;;5031986;28;20478;-67
2022/03/04 00:49:27;;;;;;;15.07;4.53;;;10.30;99.90;;;;;;5032055;28;20022;-68
2022/03/04 00:51:52;;;;;;;13.10;2.80;;;10.40;99.90;;;;;;5030713;28;20467;-67
2022/03/04 00:54:18;;;;;;;12.07;3.38;;;10.40;99.90;;;;;;5032322;28;20104;-68
2022/03/04 00:56:44;;;;;;;11.77;2.75;;;10.40;99.90;;;;;;5033106;28;20394;-67
2022/03/04 00:59:09;;;;;;;10.38;4.47;;;10.30;99.90;;;;;;5031690;28;20128;-67
2022/03/04 01:01:35;;;;;;;18.42;10.93;;;10.20;99.90;;;;;;5031668;28;20136;-67
2022/03/04 01:04:01;;;;;;;10.95;3.85;;;10.30;99.90;;;;;;5031768;28;20033;-68
2022/03/04 01:06:26;;;;;;;18.95;12.15;;;10.30;99.90;;;;;;5031362;28;20108;-67
2022/03/04 01:08:52;;;;;;;15.02;7.05;;;10.30;99.90;;;;;;5032514;28;20104;-67
2022/03/04 01:11:18;;;;;;;15.98;10.13;;;10.30;99.90;;;;;;5031573;28;20037;-67
2022/03/04 01:13:44;;;;;;;18.17;8.13;;;10.30;99.90;;;;;;5031329;28;20025;-67
2022/03/04 01:16:10;;;;;;;20.23;13.98;;;10.30;99.90;;;;;;5031106;28;20025;-68
2022/03/04 01:18:35;;;;;;;10.48;5.07;;;10.30;99.90;;;;;;5031576;28;20038;-67
2022/03/04 01:21:01;;;;;;;9.95;2.80;;;10.30;99.90;;;;;;5032494;28;20025;-68
2022/03/04 01:23:27;;;;;;;8.68;3.10;;;10.30;99.90;;;;;;5031341;28;20048;-68
2022/03/04 01:25:52;;;;;;;9.30;3.80;;;10.20;99.90;;;;;;5030810;28;20116;-67
2022/03/04 01:28:20;;;;;;;8.50;4.75;;;10.30;99.90;;;;;;5031749;28;20144;-68
2022/03/04 01:30:46;;;;;;;10.95;2.90;;;10.30;99.90;;;;;;5029686;28;20566;-68
2022/03/04 01:33:12;;;;;;;11.02;4.88;;;10.20;99.90;;;;;;5032881;28;20033;-68
2022/03/04 01:35:38;;;;;;;6.38;2.83;;;10.30;99.90;;;;;;5031834;28;20414;-67
2022/03/04 01:38:04;;;;;;;10.32;4.72;;;10.40;99.90;;;;;;5030869;28;20087;-67
2022/03/04 01:40:30;;;;;;;10.27;3.90;;;10.30;99.90;;;;;;5031034;28;20083;-68
2022/03/04 01:42:56;;;;;;;9.30;5.47;;;10.30;99.90;;;;;;5030956;28;20069;-68
2022/03/04 01:45:22;;;;;;;7.53;2.47;;;10.30;99.90;;;;;;5031436;28;20064;-67
2022/03/04 01:47:48;;;;;;;10.55;4.60;;;10.40;99.90;;;;;;5031082;28;20040;-68
2022/03/04 01:50:14;;;;;;;10.38;3.53;;;10.30;99.90;;;;;;5030677;28;20022;-67
2022/03/04 01:52:40;;;;;;;12.73;4.00;;;10.30;99.90;;;;;;5030824;28;20397;-67
2022/03/04 01:55:08;;;;;;;13.02;6.07;;;10.20;99.90;;;;;;5030504;28;20402;-67
2022/03/04 01:57:34;;;;;;;12.15;4.28;;;10.30;99.90;;;;;;5015246;28;20087;-67
2022/03/04 02:00:00;;;;;;;10.48;3.10;;;10.20;99.90;;;;;;5032094;28;20494;-67
2022/03/04 02:02:26;;;;;;;13.93;7.03;;;10.10;99.90;;;;;;5030484;28;20029;-67
2022/03/04 02:04:52;;;;;;;20.33;13.30;;;10.10;99.90;;;;;;5030790;28;20028;-67
2022/03/04 02:07:18;;;;;;;13.05;5.65;;;10.20;99.90;;;;;;5030581;28;20041;-67
2022/03/04 02:09:43;;;;;;;26.10;20.23;;;10.20;99.90;;;;;;5028970;28;20044;-68
2022/03/04 02:12:09;;;;;;;10.43;3.10;;;10.20;99.90;;;;;;5032095;28;20170;-67
2022/03/04 02:14:35;;;;;;;7.97;5.43;;;10.20;99.90;;;;;;5031159;28;20133;-67
2022/03/04 02:17:03;;;;;;;15.02;6.05;;;10.10;99.90;;;;;;5030253;28;20175;-69
2022/03/04 02:19:29;;;;;;;13.40;4.18;;;10.20;99.90;;;;;;5030398;28;20108;-69
2022/03/04 02:21:58;;;;;;;9.02;2.75;;;10.10;99.90;;;;;;5030431;28;20104;-68
2022/03/04 02:24:27;;;;;;;10.82;3.05;;;10.20;99.90;;;;;;5028811;28;20025;-68
2022/03/04 02:26:54;;;;;;;8.00;3.70;;;10.10;99.90;;;;;;5031856;28;20032;-68
2022/03/04 02:29:20;;;;;;;10.52;3.40;;;10.10;99.90;;;;;;5029960;28;20033;-68
2022/03/04 02:31:46;;;;;;;10.32;2.95;;;10.20;99.90;;;;;;5030488;28;20072;-68
2022/03/04 02:34:12;;;;;;;10.40;4.13;;;10.20;99.90;;;;;;5030199;28;20029;-68
2022/03/04 02:36:38;;;;;;;12.85;4.45;;;10.00;99.90;;;;;;5029997;28;20077;-68
2022/03/04 02:39:06;;;;;;;12.27;2.97;;;10.10;99.90;;;;;;5031710;28;20030;-68
2022/03/04 02:41:35;;;;;;;8.90;2.95;;;10.20;99.90;;;;;;5030417;28;20031;-68
2022/03/04 02:44:03;;;;;;;11.95;2.70;;;10.20;99.90;;;;;;5029978;28;20033;-68
2022/03/04 02:46:29;;;;;;;10.35;5.47;;;10.10;99.90;;;;;;5030311;28;20037;-68
2022/03/04 02:48:55;;;;;;;10.15;3.40;;;10.10;99.90;;;;;;5028949;28;20026;-68
2022/03/04 02:51:21;;;;;;;10.02;3.38;;;10.10;99.90;;;;;;5029985;28;20028;-68
2022/03/04 02:53:46;;;;;;;14.25;5.75;;;10.10;99.90;;;;;;5031638;28;20022;-68
2022/03/04 02:56:13;;;;;;;17.73;10.15;;;10.00;99.90;;;;;;5029656;28;20053;-68
2022/03/04 02:58:38;;;;;;;11.13;4.80;;;10.00;99.90;;;;;;5030265;28;20033;-68
2022/03/04 03:01:04;;;;;;;10.52;5.30;;;10.00;99.90;;;;;;5029977;28;20506;-68
2022/03/04 03:03:31;;;;;;;11.15;6.90;;;10.20;99.90;;;;;;5029341;28;20076;-67
2022/03/04 03:05:56;;;;;;;42.17;36.05;;;10.00;99.90;;;;;;5031435;28;20030;-67
2022/03/04 03:08:22;;;;;;;17.83;13.07;;;10.00;99.90;;;;;;5029477;28;20032;-68
2022/03/04 03:10:48;;;;;;;55.10;48.17;;;10.10;99.90;;;;;;5029667;28;20034;-68
2022/03/04 03:13:13;;;;;;;39.65;32.13;;;10.00;99.90;;;;;;5030142;28;20406;-68
2022/03/04 03:15:39;;;;;;;6.57;3.10;;;10.00;99.90;;;;;;5029864;28;20026;-67
2022/03/04 03:18:05;;;;;;;9.25;3.78;;;10.10;99.90;;;;;;5031553;28;20045;-68
2022/03/04 03:20:31;;;;;;;5.82;1.90;;;10.00;99.90;;;;;;5028206;28;20049;-68
2022/03/04 03:22:57;;;;;;;8.85;2.20;;;10.00;99.90;;;;;;5029351;28;20103;-68
2022/03/04 03:25:23;;;;;;;7.45;1.88;;;10.00;99.90;;;;;;5029561;28;20018;-68
2022/03/04 03:27:48;;;;;;;6.55;1.80;;;10.00;99.90;;;;;;5028870;28;20041;-68
2022/03/04 03:30:14;;;;;;;4.35;1.40;;;9.90;99.90;;;;;;5030700;28;20032;-68
2022/03/04 03:32:40;;;;;;;5.15;1.33;;;9.90;99.90;;;;;;5030511;28;20486;-68
2022/03/04 03:35:08;;;;;;;4.80;1.20;;;9.80;99.90;;;;;;5029785;28;20037;-68
2022/03/04 03:37:37;;;;;;;2.10;1.20;;;9.90;99.90;;;;;;5029052;28;20049;-68
2022/03/04 03:40:05;;;;;;;4.22;1.08;;;9.80;99.90;;;;;;5032625;28;20032;-68
2022/03/04 03:42:31;;;;;;;3.35;1.35;;;9.90;99.90;;;;;;5032550;28;20033;-68
2022/03/04 03:44:57;;;;;;;3.25;1.30;;;9.90;99.90;;;;;;5034860;28;20029;-68
2022/03/04 03:47:23;;;;;;;3.53;1.20;;;9.80;99.90;;;;;;5033107;28;20052;-68
2022/03/04 03:49:49;;;;;;;2.08;0.90;;;9.90;99.90;;;;;;5033068;28;20100;-68
2022/03/04 03:52:14;;;;;;;4.60;1.50;;;9.80;99.90;;;;;;5032861;28;20406;-68
2022/03/04 03:54:40;;;;;;;3.05;1.08;;;9.90;99.90;;;;;;5032994;28;20034;-68
2022/03/04 03:57:06;;;;;;;1.90;0.82;;;9.80;99.90;;;;;;5034685;28;20037;-68
2022/03/04 03:59:32;;;;;;;3.75;1.30;;;9.80;99.90;;;;;;5033539;28;20112;-68
2022/03/04 04:01:58;;;;;;;3.35;1.10;;;9.80;99.90;;;;;;5032810;28;20037;-68
2022/03/04 04:04:25;;;;;;;2.63;1.27;;;9.80;99.90;;;;;;5032897;28;20025;-68
2022/03/04 04:06:50;;;;;;;3.88;1.13;;;9.80;99.90;;;;;;5031284;28;20369;-67
2022/03/04 04:09:16;;;;;;;3.83;1.30;;;9.70;99.90;;;;;;5033472;28;20030;-68
2022/03/04 04:11:43;;;;;;;5.47;1.55;;;9.60;99.90;;;;;;5034178;28;20060;-68
2022/03/04 04:14:09;;;;;;;5.05;1.60;;;9.60;99.90;;;;;;5032556;28;20029;-68
2022/03/04 04:16:36;;;;;;;5.05;1.70;;;9.50;99.90;;;;;;5032525;28;20033;-68
2022/03/04 04:19:03;;;;;;;6.18;1.60;;;9.50;99.90;;;;;;5033019;28;20036;-68
2022/03/04 04:21:29;;;;;;;5.32;1.60;;;9.50;99.90;;;;;;5031695;28;20117;-68
2022/03/04 04:23:55;;;;;;;6.95;1.60;;;9.50;99.90;;;;;;5032942;28;20163;-68
2022/03/04 04:26:22;;;;;;;5.85;1.67;;;9.60;99.90;;;;;;5031875;28;20107;-68
2022/03/04 04:28:48;;;;;;;7.95;2.40;;;9.60;99.90;;;;;;5032072;28;20047;-68
2022/03/04 04:31:14;;;;;;;7.18;2.20;;;9.50;99.90;;;;;;5032034;28;20022;-68
2022/03/04 04:33:40;;;;;;;7.22;1.95;;;9.30;99.90;;;;;;5032346;28;20045;-68
2022/03/04 04:36:06;;;;;;;4.13;1.70;;;9.40;99.90;;;;;;5033420;28;20045;-68
2022/03/04 04:38:32;;;;;;;6.85;1.90;;;9.50;99.90;;;;;;5032528;28;20043;-68
2022/03/04 04:40:58;;;;;;;5.70;1.63;;;9.40;99.90;;;;;;5032308;28;20030;-68
2022/03/04 04:43:24;;;;;;;7.60;1.80;;;9.30;99.90;;;;;;5032143;28;20040;-68
2022/03/04 04:45:51;;;;;;;5.43;1.55;;;9.40;99.90;;;;;;5030862;28;20101;-68
2022/03/04 04:48:17;;;;;;;9.98;1.98;;;9.40;99.90;;;;;;5032796;28;20037;-68
2022/03/04 04:50:43;;;;;;;7.55;1.73;;;9.50;99.90;;;;;;5032864;28;20405;-67
2022/03/04 04:53:09;;;;;;;4.47;1.50;;;9.30;99.90;;;;;;5031877;28;20013;-67
2022/03/04 04:55:34;;;;;;;7.47;1.63;;;9.40;99.90;;;;;;5032113;28;20032;-67
2022/03/04 04:58:00;;;;;;;7.30;1.60;;;9.30;99.90;;;;;;5032269;28;20033;-67
2022/03/04 05:00:26;;;;;;;8.07;1.85;;;9.20;99.90;;;;;;5031935;28;20418;-68
2022/03/04 05:02:52;;;;;;;5.43;1.95;;;9.20;99.90;;;;;;5032232;28;20025;-67
2022/03/04 05:05:19;;;;;;;6.55;1.58;;;9.20;99.90;;;;;;5031339;28;20032;-68
2022/03/04 05:07:46;;;;;;;6.63;1.75;;;9.20;99.90;;;;;;5031986;28;20391;-67
2022/03/04 05:10:12;;;;;;;3.97;1.70;;;9.40;99.90;;;;;;5031612;28;20028;-68
2022/03/04 05:12:38;;;;;;;6.20;1.50;;;9.30;99.90;;;;;;5031426;28;20042;-68
2022/03/04 05:15:05;;;;;;;7.65;1.63;;;9.20;99.90;;;;;;5033839;28;20021;-68
2022/03/04 05:17:31;;;;;;;5.57;1.50;;;9.20;99.90;;;;;;5030042;28;20128;-67
2022/03/04 05:19:57;;;;;;;6.90;1.80;;;9.20;99.90;;;;;;5031089;28;20105;-68
2022/03/04 05:22:22;;;;;;;5.90;1.73;;;9.20;99.90;;;;;;5031328;28;20509;-68
2022/03/04 05:24:49;;;;;;;6.28;1.73;;;9.30;99.90;;;;;;5031442;28;20041;-68
2022/03/04 05:27:14;;;;;;;5.53;1.58;;;9.40;99.90;;;;;;5032290;28;20152;-67
2022/03/04 05:29:40;;;;;;;7.68;1.70;;;9.30;99.90;;;;;;5032651;28;20502;-67
2022/03/04 05:32:06;;;;;;;10.98;1.90;;;9.30;99.90;;;;;;5031187;28;20026;-67
2022/03/04 05:34:32;;;;;;;5.95;1.83;;;9.20;99.90;;;;;;5031046;28;20084;-68
2022/03/04 05:36:58;;;;;;;6.25;1.92;;;9.20;99.90;;;;;;5030745;28;20057;-68
2022/03/04 05:39:23;;;;;;;7.97;2.25;;;9.20;99.90;;;;;;5031797;28;20079;-67
2022/03/04 05:41:49;;;;;;;8.82;2.58;;;9.20;99.90;;;;;;5031139;28;20033;-68
2022/03/04 05:44:15;;;;;;;8.50;2.25;;;9.20;99.90;;;;;;5031058;28;20032;-68
2022/03/04 05:46:41;;;;;;;7.00;2.13;;;9.20;99.90;;;;;;5030492;28;20566;-67
2022/03/04 05:49:07;;;;;;;8.38;2.10;;;9.20;99.90;;;;;;5030930;28;20037;-68
2022/03/04 05:51:34;;;;;;;10.90;2.53;;;9.10;99.90;;;;;;5030831;28;20029;-67
2022/03/04 05:54:00;;;;;;;8.05;2.03;;;9.10;99.90;;;;;;5033005;28;20040;-67
2022/03/04 05:56:26;;;;;;;11.30;2.38;;;9.00;99.90;;;;;;5030702;28;20041;-68
2022/03/04 05:58:52;;;;;;;11.40;2.33;;;9.10;99.90;;;;;;5030725;28;20113;-68
2022/03/04 06:01:18;;;;;;;11.02;2.22;;;9.10;99.90;;;;;;5030046;28;20123;-67
2022/03/04 06:03:44;;;;;;;9.55;2.40;;;9.20;99.90;;;;;;5028733;28;20026;-68
2022/03/04 06:06:11;;;;;;;15.07;3.00;;;9.10;99.90;;;;;;5031843;28;20056;-68
2022/03/04 06:08:37;;;;;;;12.30;2.72;;;9.10;99.90;;;;;;5031460;28;20425;-68
2022/03/04 06:11:03;;;;;;;15.93;3.00;;;9.00;99.90;;;;;;5030566;28;20025;-68
2022/03/04 06:13:29;;;;;;;14.25;2.85;;;9.00;99.90;;;;;;5030401;28;20034;-68
2022/03/04 06:15:55;;;;;;;14.43;3.13;;;8.90;99.90;;;;;;5030575;28;20025;-67
2022/03/04 06:18:21;;;;;;;12.95;2.85;;;8.90;99.90;;;;;;5031393;28;20037;-68
2022/03/04 06:20:47;;;;;;;12.02;2.60;;;8.90;99.90;;;;;;5030047;28;20029;-67
2022/03/04 06:23:13;;;;;;;13.05;2.55;;;9.00;99.90;;;;;;5030396;28;20052;-67
2022/03/04 06:25:39;;;;;;;11.05;2.80;;;9.10;99.90;;;;;;5030233;28;20561;-67
2022/03/04 06:28:05;;;;;;;14.02;2.88;;;9.10;99.90;;;;;;5030786;28;20564;-67
2022/03/04 06:30:34;;;;;;;13.05;2.70;;;9.00;99.90;;;;;;5029665;28;20021;-67
2022/03/04 06:35:45;;;;;;;14.15;2.97;;;9.00;99.90;;;;;;5031470;28;20100;-67
2022/03/04 06:38:12;;;;;;;16.50;3.42;;;9.10;99.90;;;;;;5030001;28;20033;-67
2022/03/04 06:40:37;;;;;;;15.23;3.35;;;9.00;99.90;;;;;;5030216;28;20532;-67
2022/03/04 06:43:05;;;;;;;18.30;3.65;;;9.10;99.90;;;;;;5028985;28;20030;-66
2022/03/04 06:45:31;;;;;;;18.52;3.45;;;9.00;99.90;;;;;;5029974;28;20026;-65
2022/03/04 06:47:57;;;;;;;14.45;3.35;;;9.00;99.90;;;;;;5031903;28;20083;-66
2022/03/04 06:50:23;;;;;;;17.20;3.75;;;9.00;99.90;;;;;;5030010;28;20025;-65
2022/03/04 06:52:51;;;;;;;14.63;3.28;;;9.00;99.90;;;;;;5030437;28;20552;-65
2022/03/04 06:55:17;;;;;;;16.10;3.40;;;9.00;99.90;;;;;;5029943;28;20104;-65
2022/03/04 06:57:42;;;;;;;16.13;3.60;;;9.00;99.90;;;;;;5028522;28;20109;-65
2022/03/04 07:00:10;;;;;;;16.35;3.63;;;9.00;99.90;;;;;;5031217;28;20057;-66
2022/03/04 07:02:37;;;;;;;17.83;3.90;;;9.10;99.90;;;;;;5029030;28;20032;-65
2022/03/04 07:05:05;;;;;;;17.70;3.60;;;9.00;99.90;;;;;;5030059;28;20018;-66
2022/03/04 07:07:31;;;;;;;19.17;3.60;;;9.10;99.90;;;;;;5030086;28;20018;-65
2022/03/04 07:09:57;;;;;;;116.43;103.97;;;9.10;99.90;;;;;;5030038;28;20592;-64
2022/03/04 07:12:23;;;;;;;35.28;27.45;;;9.10;99.90;;;;;;5030474;28;20108;-65
2022/03/04 07:14:50;;;;;;;146.88;131.45;;;9.10;99.90;;;;;;5033527;28;20022;-65
2022/03/04 07:17:16;;;;;;;37.47;27.13;;;9.10;99.90;;;;;;5033246;28;20037;-65
2022/03/04 07:19:42;;;;;;;23.92;14.73;;;9.10;99.90;;;;;;5033684;28;20092;-65
2022/03/04 07:22:08;;;;;;;20.65;8.52;;;9.30;99.90;;;;;;5033773;28;20022;-65
2022/03/04 07:24:34;;;;;;;28.75;21.05;;;9.30;99.90;;;;;;5033675;28;20042;-66
2022/03/04 07:27:00;;;;;;;45.42;40.85;;;9.40;99.90;;;;;;5035066;28;20030;-65
2022/03/04 07:29:26;;;;;;;25.25;13.13;;;9.40;99.90;;;;;;5030353;28;20025;-66
2022/03/04 07:31:53;;;;;;;55.08;49.35;;;9.40;99.90;;;;;;5033771;28;20083;-66
2022/03/04 07:34:23;;;;;;;117.93;107.10;;;9.50;99.90;;;;;;5030566;28;20076;-66
2022/03/04 07:36:49;;;;;;;76.28;68.65;;;9.60;99.90;;;;;;5031798;28;20045;-66
2022/03/04 07:39:15;;;;;;;35.20;21.95;;;9.60;99.90;;;;;;5034197;28;20028;-66
2022/03/04 07:41:41;;;;;;;33.65;15.57;;;9.50;99.90;;;;;;5034421;28;20018;-64
2022/03/04 07:44:07;;;;;;;58.03;31.58;;;9.60;99.90;;;;;;5032849;28;20116;-66
2022/03/04 07:46:33;;;;;;;25.90;10.32;;;9.60;99.90;;;;;;5033337;28;20491;-64
2022/03/04 07:48:59;;;;;;;37.53;12.43;;;9.70;99.90;;;;;;5033149;28;20410;-66
2022/03/04 07:51:25;;;;;;;32.40;10.20;;;9.60;99.90;;;;;;5033040;28;20021;-65
2022/03/04 07:53:51;;;;;;;27.35;6.13;;;9.70;99.90;;;;;;5034866;28;20036;-65
2022/03/04 07:56:17;;;;;;;23.20;5.90;;;9.90;99.90;;;;;;5032885;28;20078;-65
2022/03/04 07:58:43;;;;;;;29.48;6.60;;;10.00;99.90;;;;;;5032504;28;20083;-66
2022/03/04 08:01:09;;;;;;;27.80;7.13;;;9.90;99.90;;;;;;5031979;28;20049;-66
2022/03/04 08:03:35;;;;;;;32.17;8.70;;;9.90;99.90;;;;;;5032875;28;20069;-64
2022/03/04 08:06:01;;;;;;;35.13;8.88;;;9.90;99.90;;;;;;5033934;28;20048;-65
2022/03/04 08:08:28;;;;;;;30.70;7.28;;;10.00;99.90;;;;;;5032291;28;20029;-65
2022/03/04 08:10:54;;;;;;;25.95;6.05;;;10.10;99.90;;;;;;5032456;28;20037;-66
2022/03/04 08:13:20;;;;;;;34.67;7.30;;;10.10;99.90;;;;;;5029458;28;20028;-66
2022/03/04 08:15:46;;;;;;;31.75;6.90;;;10.10;99.90;;;;;;5030988;28;20034;-65
2022/03/04 08:18:12;;;;;;;28.50;6.10;;;10.20;99.90;;;;;;5034130;28;20179;-66
2022/03/04 08:20:38;;;;;;;31.42;9.05;;;10.20;99.90;;;;;;5032167;28;20040;-66
2022/03/04 08:23:04;;;;;;;29.50;8.50;;;10.20;99.90;;;;;;5032275;28;20490;-66
2022/03/04 08:25:30;;;;;;;29.67;8.55;;;10.30;99.90;;;;;;5031464;28;20033;-65
2022/03/04 08:27:56;;;;;;;35.50;7.20;;;10.30;99.90;;;;;;5032720;28;20072;-66
2022/03/04 08:30:22;;;;;;;35.55;7.10;;;10.40;99.90;;;;;;5032449;28;20026;-66
2022/03/04 08:32:48;;;;;;;32.72;8.35;;;10.50;99.90;;;;;;5034214;28;20390;-66
2022/03/04 08:35:13;;;;;;;32.45;7.20;;;10.60;99.90;;;;;;5032037;28;20037;-66
2022/03/04 08:37:39;;;;;;;36.17;7.15;;;10.60;99.90;;;;;;5032290;28;20033;-66
2022/03/04 08:40:08;;;;;;;32.15;9.18;;;10.60;99.90;;;;;;5031033;28;20040;-66
2022/03/04 08:42:35;;;;;;;30.05;8.10;;;10.50;99.90;;;;;;5015976;28;20375;-66
2022/03/04 08:45:01;;;;;;;26.13;7.10;;;10.60;99.90;;;;;;5034201;28;20032;-67
2022/03/04 08:47:26;;;;;;;29.90;7.20;;;10.50;99.90;;;;;;5032183;28;20033;-66
2022/03/04 08:49:52;;;;;;;33.03;14.50;;;10.70;99.90;;;;;;5031944;28;20025;-66
2022/03/04 08:52:18;;;;;;;37.30;14.85;;;10.60;99.90;;;;;;5032007;28;20036;-66
2022/03/04 08:54:44;;;;;;;31.45;13.10;;;10.60;99.90;;;;;;5030838;28;20026;-67
2022/03/04 08:57:09;;;;;;;40.47;16.60;;;10.90;99.90;;;;;;5032941;28;20515;-66
2022/03/04 08:59:35;;;;;;;34.47;12.57;;;11.10;99.90;;;;;;5027331;28;20017;-66
2022/03/04 09:02:01;;;;;;;86.55;58.08;;;11.00;99.90;;;;;;5029317;28;20155;-65
2022/03/04 09:04:27;;;;;;;198.02;134.85;;;10.90;99.90;;;;;;5031550;28;20022;-66
2022/03/04 09:06:53;;;;;;;72.47;53.55;;;10.90;99.90;;;;;;5031611;28;20563;-65
2022/03/04 09:09:18;;;;;;;70.38;52.35;;;11.00;99.90;;;;;;5032580;28;20048;-66
2022/03/04 09:11:44;;;;;;;51.50;31.17;;;11.00;99.90;;;;;;5032809;28;20095;-66
2022/03/04 09:14:10;;;;;;;132.05;118.07;;;10.80;99.90;;;;;;5030884;28;20121;-66
2022/03/04 09:16:36;;;;;;;363.25;326.08;;;10.90;99.90;;;;;;5031165;28;20036;-67
2022/03/04 09:19:03;;;;;;;313.98;282.60;;;11.00;99.90;;;;;;5030406;28;20037;-67
2022/03/04 09:21:29;;;;;;;196.18;176.13;;;11.10;99.90;;;;;;5031851;28;20396;-66
2022/03/04 09:23:55;;;;;;;39.28;17.58;;;11.00;99.90;;;;;;5033153;28;20031;-67
2022/03/04 09:26:21;;;;;;;42.45;17.48;;;11.00;99.90;;;;;;5030861;28;20022;-65
2022/03/04 09:28:47;;;;;;;32.92;11.40;;;11.00;99.90;;;;;;5031272;28;20029;-67
2022/03/04 09:31:13;;;;;;;50.97;23.15;;;11.10;99.90;;;;;;5031083;28;20486;-67
2022/03/04 09:33:39;;;;;;;39.83;13.00;;;10.90;99.90;;;;;;5029886;28;20473;-66
2022/03/04 09:36:11;;;;;;;35.78;12.40;;;11.00;99.90;;;;;;5032561;28;20073;-66
2022/03/04 09:38:36;;;;;;;34.65;15.70;;;11.20;99.90;;;;;;5029945;28;20076;-64
2022/03/04 09:41:03;;;;;;;28.13;7.65;;;11.50;99.90;;;;;;5031036;28;20079;-66
2022/03/04 09:43:28;;;;;;;27.58;7.05;;;11.50;99.90;;;;;;5030721;28;20033;-66
2022/03/04 09:45:54;;;;;;;29.45;8.55;;;11.50;99.90;;;;;;5030886;28;20036;-67
2022/03/04 09:48:22;;;;;;;32.83;6.32;;;11.40;99.90;;;;;;5031656;28;20028;-66
2022/03/04 09:50:48;;;;;;;30.42;7.82;;;11.50;99.90;;;;;;5030740;28;20576;-66
2022/03/04 09:53:15;;;;;;;28.88;6.25;;;11.60;99.90;;;;;;5030514;28;20025;-66
2022/03/04 09:55:43;;;;;;;27.90;6.20;;;11.90;99.90;;;;;;5030870;28;20064;-66
2022/03/04 09:58:10;;;;;;;25.83;5.78;;;12.00;99.90;;;;;;5029498;28;20098;-66
2022/03/04 10:00:37;;;;;;;25.38;6.35;;;12.00;99.90;;;;;;5015179;28;20108;-67
2022/03/04 10:03:02;;;;;;;24.73;7.00;;;12.20;99.90;;;;;;5060503;28;20036;-66
2022/03/04 10:05:28;;;;;;;26.73;5.80;;;12.10;99.90;;;;;;5030671;28;20053;-66
2022/03/04 10:07:54;;;;;;;30.05;7.75;;;12.10;99.90;;;;;;5030415;28;20026;-66
2022/03/04 10:10:22;;;;;;;26.38;7.88;;;12.40;99.90;;;;;;5030525;28;20018;-66
2022/03/04 10:12:55;;;;;;;22.90;7.53;;;12.50;99.90;;;;;;5029098;28;20025;-66
2022/03/04 10:15:22;;;;;;;25.73;5.90;;;12.50;99.90;;;;;;5030558;28;20034;-66
2022/03/04 10:18:02;;;;;;;25.60;6.15;;;12.50;99.90;;;;;;5030199;28;20044;-66
2022/03/04 10:20:35;;;;;;;25.67;5.28;;;12.40;99.90;;;;;;5030297;28;20025;-66
2022/03/04 10:23:13;;;;;;;19.40;5.00;;;12.30;99.90;;;;;;5030011;28;20029;-65
2022/03/04 10:25:43;;;;;;;24.50;5.07;;;12.40;99.90;;;;;;5030693;28;20276;-66
2022/03/04 10:28:10;;;;;;;24.10;5.78;;;12.60;99.90;;;;;;5030570;28;20021;-66
2022/03/04 10:30:36;;;;;;;24.23;7.78;;;12.90;99.90;;;;;;5014676;28;20083;-66
2022/03/04 10:33:10;;;;;;;54.80;42.90;;;13.00;99.90;;;;;;5031110;28;20021;-66
2022/03/04 10:35:37;;;;;;;29.50;9.20;;;12.80;99.90;;;;;;5029590;28;20049;-66
2022/03/04 10:38:04;;;;;;;26.23;8.68;;;12.70;99.90;;;;;;5028405;28;20500;-66
2022/03/04 10:40:36;;;;;;;28.95;19.60;;;12.90;99.90;;;;;;5030061;28;20034;-66
2022/03/04 10:43:05;;;;;;;26.45;12.68;;;12.70;99.90;;;;;;5030083;28;20034;-66
2022/03/04 10:45:33;;;;;;;22.67;6.15;;;12.60;99.90;;;;;;5030137;28;20175;-66
2022/03/04 10:48:04;;;;;;;40.22;26.35;;;12.90;99.90;;;;;;5031535;28;20087;-66
2022/03/04 10:50:33;;;;;;;39.42;26.02;;;13.00;99.90;;;;;;5029932;28;20497;-66
2022/03/04 10:53:08;;;;;;;48.25;32.28;;;13.40;99.90;;;;;;5028343;28;20453;-66
2022/03/04 10:55:43;;;;;;;22.95;9.85;;;13.10;99.90;;;;;;5029866;28;20025;-66
2022/03/04 10:58:35;;;;;;;19.88;9.27;;;13.50;99.90;;;;;;5030442;28;20045;-66
2022/03/04 11:01:02;;;;;;;17.35;3.72;;;13.70;99.90;;;;;;5017222;28;20472;-66
2022/03/04 11:03:30;;;;;;;17.98;4.45;;;13.30;99.90;;;;;;5029840;28;20398;-66
2022/03/04 11:06:01;;;;;;;17.25;4.45;;;13.40;99.90;;;;;;5031786;28;20413;-66
2022/03/04 11:08:27;;;;;;;19.73;4.18;;;13.60;99.90;;;;;;5029610;28;20498;-66
2022/03/04 11:10:55;;;;;;;14.90;4.00;;;13.60;99.90;;;;;;5029892;28;20056;-66
2022/03/04 11:13:21;;;;;;;17.98;4.40;;;13.50;99.90;;;;;;5029630;28;20449;-66
2022/03/04 11:15:48;;;;;;;18.92;4.43;;;14.00;99.90;;;;;;5028450;28;20022;-66
2022/03/04 11:18:17;;;;;;;20.00;3.92;;;14.10;99.90;;;;;;5031454;28;20045;-66
2022/03/04 11:20:46;;;;;;;16.15;3.97;;;14.00;99.90;;;;;;5030644;28;20028;-67
2022/03/04 11:23:18;;;;;;;13.80;3.80;;;13.70;99.90;;;;;;5029596;28;20034;-66
2022/03/04 11:25:50;;;;;;;17.00;3.88;;;13.80;99.90;;;;;;5029631;28;20230;-66
2022/03/04 11:28:19;;;;;;;17.25;4.25;;;13.90;99.90;;;;;;5030002;28;20028;-66
2022/03/04 11:30:51;;;;;;;18.38;4.30;;;13.90;99.90;;;;;;5028448;28;20033;-66
2022/03/04 11:33:29;;;;;;;21.20;4.18;;;13.40;99.90;;;;;;5030282;28;20026;-66
2022/03/04 11:36:09;;;;;;;19.77;3.85;;;13.70;99.90;;;;;;5029855;28;20414;-66
2022/03/04 11:38:44;;;;;;;12.25;3.60;;;13.90;99.90;;;;;;5030462;28;20041;-66
2022/03/04 11:41:10;;;;;;;16.48;4.32;;;13.70;99.90;;;;;;5029409;28;20021;-66
2022/03/04 11:43:46;;;;;;;18.02;4.00;;;13.60;99.90;;;;;;5029658;28;20026;-66
2022/03/04 11:46:28;;;;;;;21.70;4.30;;;13.40;99.90;;;;;;5029535;28;20024;-66
2022/03/04 11:49:31;;;;;;;21.38;4.18;;;13.60;99.90;;;;;;5029641;28;20052;-66
2022/03/04 11:52:09;;;;;;;19.35;4.57;;;14.10;99.90;;;;;;5016385;28;20456;-66
2022/03/04 11:54:58;;;;;;;16.58;3.95;;;14.60;99.90;;;;;;5012535;28;20624;-66
2022/03/04 11:57:28;;;;;;;14.63;3.78;;;14.10;99.90;;;;;;5027589;28;20049;-66
2022/03/04 11:59:59;;;;;;;18.33;3.97;;;14.40;99.90;;;;;;5031303;28;20018;-66
2022/03/04 12:02:43;;;;;;;16.88;4.30;;;14.60;99.90;;;;;;5032819;28;20022;-66
2022/03/04 12:05:33;;;;;;;20.20;4.28;;;13.90;99.90;;;;;;5032406;28;20410;-66
2022/03/04 12:07:59;;;;;;;19.23;3.83;;;13.90;99.90;;;;;;5032801;28;20492;-67
2022/03/04 12:10:31;;;;;;;17.48;4.05;;;14.10;99.90;;;;;;5031254;28;20030;-67
2022/03/04 12:13:01;;;;;;;16.67;3.85;;;14.30;99.90;;;;;;5033198;28;20029;-66
2022/03/04 12:15:31;;;;;;;20.23;4.10;;;14.60;99.90;;;;;;5032729;28;20112;-65
2022/03/04 12:18:05;;;;;;;20.77;4.28;;;14.60;99.90;;;;;;5034399;28;20037;-67
2022/03/04 12:20:56;;;;;;;17.05;4.07;;;14.70;99.90;;;;;;5032627;28;20435;-67
2022/03/04 12:23:50;;;;;;;22.38;4.13;;;14.70;99.90;;;;;;5032577;28;20026;-67
2022/03/04 12:26:23;;;;;;;18.15;3.90;;;14.00;99.90;;;;;;5030790;28;20121;-67
2022/03/04 12:28:52;;;;;;;17.05;3.90;;;14.10;99.90;;;;;;5032405;28;20037;-67
2022/03/04 12:31:20;;;;;;;21.55;4.22;;;14.10;99.90;;;;;;5032216;28;20405;-67
2022/03/04 12:33:54;;;;;;;18.15;4.75;;;14.20;99.90;;;;;;5031012;28;20018;-66
2022/03/04 12:36:21;;;;;;;21.25;5.13;;;14.30;99.90;;;;;;5032387;28;20133;-67
2022/03/04 12:38:54;;;;;;;22.85;5.25;;;14.50;99.90;;;;;;5034320;28;20128;-66
2022/03/04 12:41:24;;;;;;;22.50;5.10;;;14.10;99.90;;;;;;5032486;28;20509;-67
2022/03/04 12:43:54;;;;;;;20.17;4.28;;;13.90;99.90;;;;;;5032287;28;20288;-67